Flight Track Log - Related Links

Times and Time Zones

All times are in EDT time to prevent confusion due to time zone crossing. See the N680AN flight status page for this flight to view local times or setup timezone preferences in your user account.

Time Position Orientation Groundspeed Altitude Reporting Facility
EDT Latitude Longitude Course Direction KTS MPH feet Rate Location/Type
Wed 05:52:51 PM 42.3667 -70.9833 240° Southwest 165 190 800  Level KA90
Wed 05:54:26 PM 42.3833 -70.8717 79° East 209 241 4,700 2,710 Climbing Boston Center
Wed 05:55:00 PM 42.4256 -70.7846 124° Southeast  Level FlightAware Approximate
Wed 05:55:26 PM 42.3903 -70.7814 84° East 242 278 7,800  Level Boston Center
Wed 05:56:00 PM 42.3366 -70.7228 173° South  Level FlightAware Approximate
Wed 05:56:26 PM 42.3333 -70.7269 145° Southeast 223 257 10,700  Level Boston Center
Wed 05:57:00 PM 42.2491 -70.7930 228° Southwest  Level FlightAware Approximate
Wed 05:57:26 PM 42.2678 -70.7989 219° Southwest 196 226 12,200  Level Boston Center
Wed 05:58:00 PM 42.1886 -70.9210 240° Southwest  Level FlightAware Approximate
Wed 05:58:26 PM 42.2633 -70.9308 267° West 257 296 14,900  Level Boston Center
Wed 05:59:26 PM 42.2569 -71.0825 267° West 348 400 17,700 2,200 Climbing Boston Center
Wed 06:00:26 PM 42.2542 -71.2200 268° West 396 456 19,300 1,800 Climbing Boston Center
Wed 06:01:26 PM 42.2453 -71.3717 266° West 408 470 21,300 1,950 Climbing Boston Center
Wed 06:02:26 PM 42.2383 -71.5286 267° West 413 475 23,200 1,750 Climbing Boston Center
Wed 06:03:26 PM 42.2228 -71.6886 263° West 424 488 24,800 1,750 Climbing Boston Center
Wed 06:04:26 PM 42.2133 -71.8600 266° West 447 514 26,700 1,900 Climbing Boston Center
Wed 06:05:26 PM 42.2036 -72.0308 266° West 460 529 28,600 2,000 Climbing Boston Center
Wed 06:06:26 PM 42.1939 -72.2103 266° West 477 549 30,700 2,150 Climbing Boston Center
Wed 06:07:26 PM 42.1586 -72.3869 255° West 487 560 32,900 2,100 Climbing Boston Center
Wed 06:08:26 PM 42.0794 -72.5436 236° Southwest 482 555 34,900 1,950 Climbing Boston Center
Wed 06:09:26 PM 41.9917 -72.7056 234° Southwest 482 555 36,800 1,550 Climbing Boston Center
Wed 06:10:26 PM 41.9078 -72.8558 233° Southwest 496 571 38,000 600 Climbing Boston Center
Wed 06:11:26 PM 41.8281 -73.0000 233° Southwest 520 598 38,000  Level Boston Center
Wed 06:13:17 PM 41.6786 -73.2683 233° Southwest 513 590 38,000  Level New York Center
Wed 06:14:17 PM 41.6028 -73.4122 235° Southwest 501 577 38,000  Level New York Center
Wed 06:15:19 PM 41.5225 -73.5558 233° Southwest 495 570 38,000  Level New York Center
Wed 06:16:16 PM 41.4417 -73.7019 234° Southwest 495 570 38,000  Level New York Center
Wed 06:17:17 PM 41.3589 -73.8503 233° Southwest 495 570 38,000  Level New York Center
Wed 06:18:17 PM 41.2800 -73.9958 234° Southwest 495 570 38,000  Level New York Center
Wed 06:19:16 PM 41.1989 -74.1408 233° Southwest 490 564 38,000  Level New York Center
Wed 06:20:16 PM 41.1136 -74.2797 231° Southwest 490 564 38,000  Level New York Center
Wed 06:21:18 PM 41.0322 -74.4211 233° Southwest 495 570 38,000  Level New York Center
Wed 06:22:17 PM 40.9508 -74.5625 233° Southwest 495 570 38,000  Level New York Center
Wed 06:23:17 PM 40.8581 -74.7219 232° Southwest 495 570 38,000  Level New York Center
Wed 06:24:18 PM 40.7825 -74.8628 235° Southwest 495 570 38,000  Level New York Center
Wed 06:25:19 PM 40.7144 -75.0147 239° Southwest 489 563 38,000  Level New York Center
Wed 06:26:16 PM 40.6444 -75.1636 238° Southwest 483 556 38,000  Level New York Center
Wed 06:27:17 PM 40.5783 -75.3122 240° Southwest 478 550 38,000  Level New York Center
Wed 06:28:17 PM 40.5103 -75.4581 238° Southwest 473 544 38,000 836 Level New York Center
Wed 06:29:19 PM 40.4439 -75.6036 239° Southwest 473 544 39,700 1,008 Climbing New York Center
Wed 06:30:16 PM 40.3800 -75.7381 238° Southwest 459 528 40,000 153 Climbing New York Center
Wed 06:31:17 PM 40.3156 -75.8775 239° Southwest 448 516 40,000  Level New York Center
Wed 06:32:17 PM 40.2561 -75.9983 237° Southwest 448 516 40,000  Level New York Center
Wed 06:33:16 PM 40.2078 -76.1442 247° West 443 510 40,000  Level New York Center
Wed 06:34:16 PM 40.1650 -76.3067 251° West 443 510 40,000  Level New York Center
Wed 06:35:17 PM 40.1286 -76.4558 252° West 438 504 40,000  Level New York Center
Wed 06:37:03 PM 40.0647 -76.7056 252° West 450 518 40,000  Level Washington Center
Wed 06:38:03 PM 40.0217 -76.8511 249° West 445 512 40,000  Level Washington Center
Wed 06:39:04 PM 39.9761 -77.0128 250° West 439 505 40,000  Level Washington Center
Wed 06:40:02 PM 39.9389 -77.1583 252° West 434 499 40,000  Level Washington Center
Wed 06:41:03 PM 39.8975 -77.3033 250° West 434 499 40,000  Level Washington Center
Wed 06:42:03 PM 39.8597 -77.4511 252° West 429 494 40,000  Level Washington Center
Wed 06:43:04 PM 39.8181 -77.5933 249° West 429 494 40,000  Level Washington Center
Wed 06:44:02 PM 39.7778 -77.7406 250° West 429 494 40,000  Level Washington Center
Wed 06:45:02 PM 39.7378 -77.8853 250° West 429 494 40,000  Level Washington Center
Wed 06:46:02 PM 39.6975 -78.0267 250° West 429 494 40,000  Level Washington Center
Wed 06:47:03 PM 39.6592 -78.1683 251° West 429 494 40,000  Level Washington Center
Wed 06:48:04 PM 39.6081 -78.3094 245° Southwest 429 494 40,000  Level Washington Center
Wed 06:49:02 PM 39.5508 -78.4364 240° Southwest 429 494 40,000  Level Washington Center
Wed 06:50:02 PM 39.4978 -78.5689 243° Southwest 417 480 40,000  Level Washington Center
Wed 06:51:03 PM 39.4403 -78.6953 240° Southwest 412 474 40,000  Level Washington Center
Wed 06:52:03 PM 39.3869 -78.8219 241° Southwest 406 467 40,000  Level Washington Center
Wed 06:53:04 PM 39.3333 -78.9511 242° Southwest 406 467 40,000  Level Washington Center
Wed 06:54:04 PM 39.2797 -79.0775 241° Southwest 406 467 40,000  Level Washington Center
Wed 06:55:02 PM 39.2219 -79.2033 239° Southwest 406 467 40,000  Level Washington Center
Wed 06:56:02 PM 39.1747 -79.3186 242° Southwest 406 467 40,000  Level Washington Center
Wed 06:57:03 PM 39.1183 -79.4469 241° Southwest 406 467 40,000  Level Washington Center
Wed 06:58:03 PM 39.0622 -79.5750 241° Southwest 406 467 40,000  Level Washington Center
Wed 06:59:04 PM 38.9986 -79.7264 242° Southwest 421 484 40,000  Level Washington Center
Wed 07:00:04 PM 38.9422 -79.8542 240° Southwest 421 484 40,000  Level Washington Center
Wed 07:02:17 PM 38.8164 -80.1278 240° Southwest 415 478 40,000  Level Indianapolis Center
Wed 07:03:19 PM 38.7811 -80.2633 252° West 404 465 40,000  Level Indianapolis Center
Wed 07:04:21 PM 38.7442 -80.3992 251° West 403 464 40,000  Level Indianapolis Center
Wed 07:05:23 PM 38.7092 -80.5325 251° West 398 458 40,000  Level Indianapolis Center
Wed 07:06:25 PM 38.6725 -80.6647 250° West 394 453 40,000  Level Indianapolis Center
Wed 07:07:27 PM 38.6286 -80.8219 250° West 390 449 40,000  Level Indianapolis Center
Wed 07:08:29 PM 38.5936 -80.9519 251° West 387 445 40,000  Level Indianapolis Center
Wed 07:09:31 PM 38.5586 -81.0803 251° West 383 441 40,000  Level Indianapolis Center
Wed 07:10:33 PM 38.5233 -81.2078 251° West 380 437 40,000  Level Indianapolis Center
Wed 07:11:35 PM 38.4878 -81.3350 250° West 378 435 40,000  Level Indianapolis Center
Wed 07:12:37 PM 38.4522 -81.4631 251° West 378 435 40,000  Level Indianapolis Center
Wed 07:13:39 PM 38.4169 -81.5903 251° West 376 433 40,000  Level Indianapolis Center
Wed 07:14:41 PM 38.3814 -81.7178 250° West 377 434 40,000  Level Indianapolis Center
Wed 07:15:43 PM 38.3467 -81.8450 251° West 379 436 40,000  Level Indianapolis Center
Wed 07:16:45 PM 38.3050 -81.9958 251° West 374 430 40,000  Level Indianapolis Center
Wed 07:17:47 PM 38.2689 -82.1228 250° West 379 436 40,000  Level Indianapolis Center
Wed 07:18:49 PM 38.2319 -82.2497 250° West 380 437 40,000  Level Indianapolis Center
Wed 07:19:51 PM 38.1953 -82.3783 250° West 385 443 40,000  Level Indianapolis Center
Wed 07:20:53 PM 38.1558 -82.5122 249° West 385 443 40,000  Level Indianapolis Center
Wed 07:21:55 PM 38.1181 -82.6408 250° West 388 447 40,000  Level Indianapolis Center
Wed 07:22:56 PM 38.0817 -82.7678 250° West 385 443 40,000  Level Indianapolis Center
Wed 07:23:58 PM 38.0386 -82.9164 250° West 386 444 40,000  Level Indianapolis Center
Wed 07:25:00 PM 38.0000 -83.0433 249° West 386 444 40,000  Level Indianapolis Center
Wed 07:26:02 PM 37.9625 -83.1717 250° West 388 447 40,000  Level Indianapolis Center
Wed 07:27:04 PM 37.9236 -83.3008 249° West 391 450 40,000  Level Indianapolis Center
Wed 07:28:06 PM 37.8853 -83.4294 249° West 392 451 40,000  Level Indianapolis Center
Wed 07:29:08 PM 37.8467 -83.5586 249° West 394 453 40,000  Level Indianapolis Center
Wed 07:30:10 PM 37.8019 -83.7081 249° West 392 451 40,000  Level Indianapolis Center
Wed 07:31:11 PM 37.7633 -83.8375 249° West 394 453 40,000  Level Indianapolis Center
Wed 07:32:13 PM 37.7236 -83.9658 249° West 392 451 40,000  Level Indianapolis Center
Wed 07:33:15 PM 37.6847 -84.0944 249° West 393 452 40,000  Level Indianapolis Center
Wed 07:34:17 PM 37.6442 -84.2231 248° West 394 453 40,000  Level Indianapolis Center
Wed 07:35:19 PM 37.5964 -84.3750 248° West 399 459 40,000  Level Indianapolis Center
Wed 07:36:20 PM 37.5567 -84.5044 249° West 396 456 40,000  Level Indianapolis Center
Wed 07:37:22 PM 37.5156 -84.6350 248° West 400 460 40,000  Level Indianapolis Center
Wed 07:38:24 PM 37.4744 -84.7639 248° West 400 460 40,000  Level Indianapolis Center
Wed 07:39:26 PM 37.4336 -84.8944 249° West 401 461 40,000  Level Indianapolis Center
Wed 07:40:27 PM 37.3919 -85.0244 248° West 401 461 40,000  Level Indianapolis Center
Wed 07:41:29 PM 37.3447 -85.1783 249° West 404 465 40,000  Level Indianapolis Center
Wed 07:42:31 PM 37.3022 -85.3094 248° West 404 465 40,000  Level Indianapolis Center
Wed 07:43:33 PM 37.2589 -85.4406 247° West 407 468 40,000  Level Indianapolis Center
Wed 07:44:34 PM 37.2175 -85.5697 248° West 408 470 40,000  Level Indianapolis Center
Wed 07:45:21 PM 37.1814 -85.6836 248° West 414 476 40,000  Level Memphis Center
Wed 07:46:21 PM 37.1361 -85.8139 246° West 414 476 40,000  Level Memphis Center
Wed 07:47:21 PM 37.0972 -85.9461 250° West 414 476 40,000  Level Memphis Center
Wed 07:48:21 PM 37.0539 -86.0758 247° West 409 471 40,000  Level Memphis Center
Wed 07:49:21 PM 37.0142 -86.1975 248° West 409 471 40,000  Level Memphis Center
Wed 07:50:21 PM 36.9706 -86.3269 247° West 409 471 40,000  Level Memphis Center
Wed 07:51:21 PM 36.9267 -86.4564 247° West 414 476 40,000  Level Memphis Center
Wed 07:52:21 PM 36.8808 -86.5883 247° West 414 476 40,000  Level Memphis Center
Wed 07:53:21 PM 36.8328 -86.7203 246° West 414 476 40,000  Level Memphis Center
Wed 07:54:21 PM 36.7864 -86.8492 246° West 414 476 40,000  Level Memphis Center
Wed 07:55:21 PM 36.7400 -86.9808 246° West 414 476 40,000  Level Memphis Center
Wed 07:56:21 PM 36.6914 -87.1122 245° Southwest 414 476 40,000  Level Memphis Center
Wed 07:57:21 PM 36.6428 -87.2458 246° West 414 476 40,000  Level Memphis Center
Wed 07:58:21 PM 36.5958 -87.3744 246° West 414 476 40,000  Level Memphis Center
Wed 07:59:21 PM 36.5469 -87.5053 245° Southwest 414 476 40,000  Level Memphis Center
Wed 08:00:21 PM 36.4978 -87.6361 245° Southwest 419 482 40,000  Level Memphis Center
Wed 08:01:21 PM 36.4444 -87.7797 245° Southwest 419 482 40,000  Level Memphis Center
Wed 08:02:21 PM 36.3950 -87.9103 245° Southwest 419 482 40,000  Level Memphis Center
Wed 08:03:21 PM 36.3453 -88.0406 245° Southwest 426 490 40,000  Level Memphis Center
Wed 08:04:21 PM 36.3036 -88.1525 245° Southwest 426 490 40,000  Level Memphis Center
Wed 08:05:21 PM 36.2517 -88.2853 244° Southwest 418 481 40,000  Level Memphis Center
Wed 08:06:21 PM 36.2017 -88.4178 245° Southwest 418 481 40,000  Level Memphis Center
Wed 08:07:21 PM 36.1517 -88.5475 245° Southwest 425 489 40,000  Level Memphis Center
Wed 08:08:21 PM 36.0972 -88.6794 243° Southwest 425 489 40,000  Level Memphis Center
Wed 08:09:21 PM 36.0467 -88.8142 245° Southwest 431 496 40,000  Level Memphis Center
Wed 08:10:21 PM 35.9881 -88.9589 243° Southwest 431 496 40,000  Level Memphis Center
Wed 08:11:21 PM 35.9353 -89.0906 244° Southwest 431 496 40,000  Level Memphis Center
Wed 08:12:21 PM 35.8844 -89.2244 245° Southwest 431 496 40,000  Level Memphis Center
Wed 08:13:21 PM 35.8333 -89.3583 245° Southwest 431 496 40,000  Level Memphis Center
Wed 08:14:21 PM 35.7803 -89.4922 244° Southwest 431 496 40,000  Level Memphis Center
Wed 08:15:21 PM 35.7289 -89.6231 244° Southwest 431 496 40,000  Level Memphis Center
Wed 08:16:21 PM 35.6839 -89.7539 247° West 431 496 40,000  Level Memphis Center
Wed 08:17:21 PM 35.6322 -89.8844 244° Southwest 420 483 40,000  Level Memphis Center
Wed 08:18:21 PM 35.5783 -90.0125 243° Southwest 426 490 40,000  Level Memphis Center
Wed 08:19:21 PM 35.5286 -90.1453 245° Southwest 426 490 40,000  Level Memphis Center
Wed 08:20:21 PM 35.4744 -90.2756 243° Southwest 426 490 40,000  Level Memphis Center
Wed 08:21:21 PM 35.4225 -90.4056 244° Southwest 426 490 40,000  Level Memphis Center
Wed 08:22:21 PM 35.3681 -90.5353 243° Southwest 432 497 40,000  Level Memphis Center
Wed 08:23:21 PM 35.3219 -90.6522 244° Southwest 427 491 40,000  Level Memphis Center
Wed 08:25:21 PM 35.2169 -90.9111 244° Southwest 432 497 40,000  Level Memphis Center
Wed 08:26:21 PM 35.1642 -91.0378 243° Southwest 426 490 40,000  Level Memphis Center
Wed 08:27:21 PM 35.1092 -91.1694 243° Southwest 431 496 40,000  Level Memphis Center
Wed 08:28:21 PM 35.0581 -91.2983 244° Southwest 425 489 40,000  Level Memphis Center
Wed 08:29:21 PM 35.0008 -91.4244 241° Southwest 430 495 40,000  Level Memphis Center
Wed 08:30:21 PM 34.9453 -91.5553 243° Southwest 425 489 40,000  Level Memphis Center
Wed 08:31:21 PM 34.8897 -91.6836 242° Southwest 425 489 40,000  Level Memphis Center
Wed 08:32:21 PM 34.8361 -91.8119 243° Southwest 430 495 40,000  Level Memphis Center
Wed 08:33:21 PM 34.7825 -91.9400 243° Southwest 430 495 40,000  Level Memphis Center
Wed 08:34:21 PM 34.7244 -92.0703 242° Southwest 430 495 40,000  Level Memphis Center
Wed 08:35:21 PM 34.6747 -92.2006 245° Southwest 430 495 40,000  Level Memphis Center
Wed 08:36:21 PM 34.6369 -92.3411 252° West 430 495 40,000  Level Memphis Center
Wed 08:37:21 PM 34.5992 -92.4817 252° West 437 503 40,000  Level Memphis Center
Wed 08:38:21 PM 34.5589 -92.6319 252° West 442 509 40,000  Level Memphis Center
Wed 08:39:21 PM 34.5208 -92.7744 252° West 442 509 40,000  Level Memphis Center
Wed 08:40:21 PM 34.4825 -92.9144 252° West 442 509 40,000  Level Memphis Center
Wed 08:41:21 PM 34.4442 -93.0544 252° West 437 503 40,000  Level Memphis Center
Wed 08:42:54 PM 34.3947 -93.2586 254° West 456 525 40,000  Level Fort Worth Center
Wed 08:43:54 PM 34.3575 -93.3986 252° West 451 519 40,000  Level Fort Worth Center
Wed 08:44:54 PM 34.3181 -93.5386 251° West 445 512 40,000  Level Fort Worth Center
Wed 08:45:54 PM 34.2783 -93.6761 251° West 445 512 40,000 -800 Level Fort Worth Center
Wed 08:46:54 PM 34.2406 -93.8086 251° West 435 501 38,400 -1,750 Descending Fort Worth Center
Wed 08:47:54 PM 34.2008 -93.9508 251° West 435 501 36,500 -1,700 Descending Fort Worth Center
Wed 08:48:54 PM 34.1608 -94.0928 251° West 442 509 35,000 -750 Descending Fort Worth Center
Wed 08:49:54 PM 34.1206 -94.2350 251° West 450 518 35,000  Level Fort Worth Center
Wed 08:50:54 PM 34.0822 -94.3742 252° West 444 511 35,000 -200 Level Fort Worth Center
Wed 08:51:54 PM 34.0439 -94.5083 251° West 437 503 34,600 -1,050 Descending Fort Worth Center
Wed 08:52:54 PM 34.0050 -94.6425 251° West 432 497 32,900 -1,450 Descending Fort Worth Center
Wed 08:53:54 PM 33.9683 -94.7739 251° West 432 497 31,700 -1,200 Descending Fort Worth Center
Wed 08:54:54 PM 33.9292 -94.8978 249° West 421 484 30,500 -1,900 Descending Fort Worth Center
Wed 08:55:54 PM 33.8919 -95.0264 251° West 415 478 27,900 -1,900 Descending Fort Worth Center
Wed 08:56:54 PM 33.8547 -95.1575 251° West 415 478 26,700 -1,050 Descending Fort Worth Center
Wed 08:57:54 PM 33.8133 -95.2961 250° West 422 486 25,800 -950 Descending Fort Worth Center
Wed 08:58:54 PM 33.7717 -95.4369 250° West 435 501 24,800 -1,350 Descending Fort Worth Center
Wed 08:59:54 PM 33.7194 -95.5656 244° Southwest 440 506 23,100 -2,000 Descending Fort Worth Center
Wed 09:00:54 PM 33.6606 -95.6864 240° Southwest 435 501 20,800 -2,300 Descending Fort Worth Center
Wed 09:01:54 PM 33.6100 -95.8047 243° Southwest 423 487 18,500 -2,550 Descending Fort Worth Center
Wed 09:02:54 PM 33.5678 -95.9378 249° West 405 466 15,700 -2,450 Descending Fort Worth Center
Wed 09:03:54 PM 33.5253 -96.0506 246° West 385 443 13,600 -2,150 Descending Fort Worth Center
Wed 09:04:54 PM 33.4869 -96.1656 248° West 378 435 11,400 -1,300 Descending Fort Worth Center
Wed 09:05:54 PM 33.4461 -96.2733 246° West 373 429 11,000 -150 Descending Fort Worth Center
Wed 09:06:54 PM 33.4114 -96.3683 246° West 330 380 11,100  Climbing Fort Worth Center
Wed 09:07:54 PM 33.3600 -96.4508 233° Southwest 318 366 11,000 -1,000 Descending Fort Worth Center
Wed 09:08:54 PM 33.3083 -96.5286 232° Southwest 306 352 9,100 -1,800 Descending Fort Worth Center
Wed 09:09:54 PM 33.2631 -96.6111 237° Southwest 299 344 7,400 -1,600 Descending Fort Worth Center
Wed 09:10:54 PM 33.2194 -96.6883 236° Southwest 289 333 5,900 -1,150 Descending Fort Worth Center
Wed 09:11:54 PM 33.1783 -96.7681 238° Southwest 283 326 5,100 -400 Descending Fort Worth Center
Wed 09:12:54 PM 33.1389 -96.8453 239° Southwest 283 326 5,100 -150 Level Fort Worth Center
Wed 09:13:54 PM 33.0956 -96.9200 235° Southwest 283 326 4,800 -300 Descending Fort Worth Center

Login

Don't have an account? Register now (free) for customized features, flight alerts, and more!